Time;durP1;ratioP1;P1;durP2;ratioP2;P2;SDS_P1;SDS_P2;PMS_P1;PMS_P2;Temp;Humidity;BMP_temperature;BMP_pressure;BME280_temperature;BME280_humidity;BME280_pressure;Samples;Min_cycle;Max_cycle;Signal;HPM_P1;HPM_P2
2022/01/20 00:04:52;;;;;;;15.63;8.50;;;;;;;3.28;100.00;101254.53;20959723;28;20048;-72
2022/01/20 00:45:56;;;;;;;16.35;8.65;;;;;;;3.20;100.00;101289.66;20951071;28;20049;-74
2022/01/20 00:55:57;;;;;;;16.65;7.75;;;;;;;3.17;100.00;101309.44;20951341;28;20052;-73
2022/01/20 01:16:18;;;;;;;14.45;7.78;;;;;;;3.10;100.00;101331.63;20949440;28;20063;-74
2022/01/20 01:26:22;;;;;;;15.60;8.07;;;;;;;3.08;100.00;101320.38;20948506;28;20056;-74
2022/01/20 01:36:26;;;;;;;12.20;7.67;;;;;;;3.13;100.00;101313.63;20947454;28;20303;-74
2022/01/20 01:46:28;;;;;;;15.77;7.57;;;;;;;3.21;100.00;101317.31;20947378;28;20110;-73
2022/01/20 01:56:29;;;;;;;13.43;7.43;;;;;;;3.13;100.00;101312.75;20944736;28;20049;-72
2022/01/20 02:26:59;;;;;;;12.55;6.93;;;;;;;3.17;100.00;101312.88;20954339;28;20045;-73
2022/01/20 02:37:04;;;;;;;15.07;8.20;;;;;;;3.20;100.00;101319.84;20936495;28;20053;-73
2022/01/20 02:47:06;;;;;;;15.45;8.30;;;;;;;3.08;100.00;101315.22;20942304;28;20476;-72
2022/01/20 02:57:08;;;;;;;13.63;7.63;;;;;;;3.03;100.00;101293.50;20940044;28;20049;-72
2022/01/20 03:07:10;;;;;;;12.75;7.65;;;;;;;3.02;100.00;101297.81;20939225;28;20186;-74
2022/01/20 03:17:13;;;;;;;12.68;7.13;;;;;;;3.09;100.00;101296.25;20944171;28;20106;-73
2022/01/20 03:27:15;;;;;;;13.43;7.22;;;;;;;3.05;100.00;101295.28;20941914;28;20075;-75
2022/01/20 03:37:16;;;;;;;12.43;6.97;;;;;;;3.03;100.00;101301.25;20940400;28;20059;-72
2022/01/20 03:47:18;;;;;;;10.20;6.13;;;;;;;2.98;100.00;101308.88;20942699;28;20048;-74
2022/01/20 03:57:20;;;;;;;12.32;6.55;;;;;;;3.02;100.00;101315.03;20948835;28;20056;-74
2022/01/20 04:07:22;;;;;;;13.13;7.30;;;;;;;3.05;100.00;101305.63;20954747;28;20056;-72
2022/01/20 04:17:26;;;;;;;12.07;6.72;;;;;;;3.04;100.00;101305.59;20955635;28;20512;-73
2022/01/20 04:27:28;;;;;;;13.95;7.72;;;;;;;3.11;100.00;101317.88;20951174;28;20049;-74
2022/01/20 04:37:29;;;;;;;13.32;7.63;;;;;;;3.14;100.00;101328.31;20969606;28;20103;-74
2022/01/20 04:47:46;;;;;;;15.25;8.40;;;;;;;3.05;100.00;101320.28;20953548;28;20091;-74
2022/01/20 04:57:48;;;;;;;15.70;8.63;;;;;;;2.99;100.00;101327.88;20948827;28;20061;-73
2022/01/20 05:07:49;;;;;;;16.55;9.70;;;;;;;3.01;100.00;101314.13;20951618;28;20040;-77
2022/01/20 05:17:52;;;;;;;17.85;10.63;;;;;;;2.92;100.00;101303.50;20956611;28;20134;-73
2022/01/20 05:27:54;;;;;;;16.27;9.07;;;;;;;2.65;100.00;101303.56;20952304;28;20049;-74
2022/01/20 05:37:56;;;;;;;17.85;10.63;;;;;;;2.43;100.00;101314.06;20948239;28;20052;-73
2022/01/20 05:48:08;;;;;;;18.20;10.32;;;;;;;2.33;100.00;101301.66;20941957;28;20186;-71
2022/01/20 05:58:10;;;;;;;17.52;10.30;;;;;;;2.28;100.00;101307.56;20942247;28;20052;-71
2022/01/20 06:08:11;;;;;;;21.38;11.20;;;;;;;2.18;100.00;101315.84;20947382;28;20044;-71
2022/01/20 06:18:13;;;;;;;19.55;10.75;;;;;;;2.07;100.00;101324.09;20941445;28;20044;-72
2022/01/20 06:28:16;;;;;;;19.05;10.50;;;;;;;1.98;100.00;101307.44;20943269;28;20049;-72
2022/01/20 06:38:20;;;;;;;23.10;10.88;;;;;;;1.95;100.00;101311.63;20938197;28;20490;-72
2022/01/20 06:48:22;;;;;;;22.52;11.85;;;;;;;1.85;100.00;101322.47;20942445;28;20045;-72
2022/01/20 06:58:24;;;;;;;26.05;13.23;;;;;;;1.94;100.00;101330.53;20960325;28;20040;-71
2022/01/20 07:08:25;;;;;;;23.75;12.05;;;;;;;2.06;100.00;101336.13;20934330;28;20041;-72
2022/01/20 07:18:27;;;;;;;23.15;11.75;;;;;;;2.13;100.00;101352.69;20939625;28;20057;-72
2022/01/20 07:28:28;;;;;;;26.85;13.15;;;;;;;2.26;100.00;101371.25;20939301;28;20106;-71
2022/01/20 07:38:32;;;;;;;23.23;10.30;;;;;;;2.35;100.00;101393.03;20937196;28;20048;-71
2022/01/20 07:48:34;;;;;;;22.05;10.65;;;;;;;2.50;100.00;101380.66;20940634;28;20102;-71
2022/01/20 07:58:36;;;;;;;21.30;9.60;;;;;;;2.60;100.00;101385.28;20940137;28;20057;-71
2022/01/20 08:08:37;;;;;;;17.77;8.77;;;;;;;2.77;100.00;101407.38;20927901;28;20099;-71
2022/01/20 08:18:39;;;;;;;19.85;8.95;;;;;;;2.85;100.00;101417.09;20919307;28;20535;-71
2022/01/20 08:28:42;;;;;;;17.50;9.55;;;;;;;2.85;100.00;101417.97;20905007;28;20102;-71
2022/01/20 08:38:44;;;;;;;23.98;9.77;;;;;;;2.85;100.00;101435.19;20908953;28;20068;-70
2022/01/20 08:48:45;;;;;;;18.85;8.45;;;;;;;2.96;100.00;101444.16;20914859;28;20556;-70
2022/01/20 08:58:47;;;;;;;15.13;7.45;;;;;;;2.98;100.00;101455.47;20929704;28;20041;-70
2022/01/20 09:08:49;;;;;;;18.10;6.78;;;;;;;3.25;100.00;101469.25;20942335;28;20040;-70
2022/01/20 09:18:51;;;;;;;16.35;6.97;;;;;;;3.17;100.00;101464.69;20942693;28;20135;-70
2022/01/20 09:28:52;;;;;;;26.40;8.40;;;;;;;3.37;100.00;101431.66;20938720;28;20068;-70
2022/01/20 09:38:54;;;;;;;20.27;6.85;;;;;;;3.65;100.00;101439.41;20963744;28;20049;-69
2022/01/20 09:48:55;;;;;;;18.50;6.43;;;;;;;3.70;98.36;101448.19;20940262;28;20452;-69
2022/01/20 09:58:57;;;;;;;16.08;5.72;;;;;;;3.64;99.14;101437.66;20939242;28;20086;-69
2022/01/20 10:09:00;;;;;;;18.40;6.43;;;;;;;3.85;99.04;101479.69;20937583;28;20052;-70
2022/01/20 10:19:28;;;;;;;18.35;6.47;;;;;;;4.38;96.21;101482.03;20936526;28;20045;-69
2022/01/20 10:29:30;;;;;;;20.50;5.68;;;;;;;4.67;93.94;101484.50;20937258;28;20059;-69
2022/01/20 10:39:52;;;;;;;21.58;5.57;;;;;;;4.60;94.36;101493.88;20929196;28;20049;-69
2022/01/20 10:49:55;;;;;;;15.65;5.25;;;;;;;4.76;92.06;101485.63;20933982;28;20049;-69
2022/01/20 10:59:59;;;;;;;17.00;4.57;;;;;;;4.84;90.39;101484.09;20933046;28;20391;-68
2022/01/20 11:10:06;;;;;;;18.20;3.90;;;;;;;4.73;88.96;101446.63;20933848;28;20053;-70
2022/01/20 11:20:15;;;;;;;9.77;4.65;;;;;;;5.14;86.28;101442.44;20927961;28;20437;-69
2022/01/20 11:30:26;;;;;;;10.57;3.40;;;;;;;5.44;84.78;101458.66;20929673;28;20052;-69
2022/01/20 11:40:28;;;;;;;6.93;2.10;;;;;;;1.75;100.00;101518.38;20928781;28;20125;-71
2022/01/20 11:50:29;;;;;;;7.38;1.88;;;;;;;1.76;100.00;101517.53;20931213;28;20460;-70
2022/01/20 12:00:31;;;;;;;6.85;1.70;;;;;;;2.10;100.00;101489.50;20929800;28;20115;-70
2022/01/20 12:10:32;;;;;;;8.32;2.28;;;;;;;2.68;100.00;101470.84;20947336;28;20075;-71
2022/01/20 12:20:35;;;;;;;8.48;2.55;;;;;;;2.56;100.00;101473.91;20958455;28;20048;-71
2022/01/20 12:30:44;;;;;;;11.85;2.90;;;;;;;2.77;100.00;101474.59;20946693;28;20036;-72
2022/01/20 12:41:06;;;;;;;8.95;2.42;;;;;;;2.90;100.00;101481.06;20948787;28;20057;-71
2022/01/20 12:51:09;;;;;;;8.15;2.35;;;;;;;2.93;100.00;101498.41;20945343;28;20041;-72
2022/01/20 13:01:11;;;;;;;7.78;2.83;;;;;;;2.96;100.00;101511.44;20946639;28;20057;-72
2022/01/20 13:11:18;;;;;;;13.93;3.45;;;;;;;3.00;100.00;101513.28;20946274;28;20398;-72
2022/01/20 13:21:45;;;;;;;10.32;3.00;;;;;;;3.19;100.00;101505.28;20938360;28;20049;-71
2022/01/20 13:31:50;;;;;;;11.00;3.42;;;;;;;3.37;100.00;101504.13;20942746;28;20049;-72
2022/01/20 13:52:40;;;;;;;11.55;2.58;;;;;;;3.34;100.00;101505.78;20938676;28;20459;-69
2022/01/20 14:02:47;;;;;;;13.05;2.42;;;;;;;3.44;100.00;101519.00;20940877;28;20421;-69
2022/01/20 14:12:50;;;;;;;13.52;2.05;;;;;;;3.57;92.77;101514.25;20936485;28;20100;-70
2022/01/20 14:22:52;;;;;;;12.20;2.40;;;;;;;3.38;93.62;101516.25;20932906;28;20057;-70
2022/01/20 14:32:54;;;;;;;14.25;2.67;;;;;;;3.16;94.62;101531.06;20938993;28;20444;-69
2022/01/20 14:42:56;;;;;;;10.25;2.53;;;;;;;3.11;95.44;101537.81;20939898;28;20045;-69
2022/01/20 14:52:57;;;;;;;10.70;2.45;;;;;;;3.24;89.48;101547.72;20961242;28;20122;-69
2022/01/20 15:02:59;;;;;;;8.48;2.05;;;;;;;3.26;85.77;101530.56;20938807;28;20057;-69
2022/01/20 15:13:01;;;;;;;11.70;2.38;;;;;;;3.10;90.06;101551.56;20939302;28;20052;-69
2022/01/20 15:23:03;;;;;;;12.05;2.22;;;;;;;3.22;87.33;101544.22;20936439;28;20554;-69
2022/01/20 15:33:04;;;;;;;9.20;2.22;;;;;;;3.17;83.88;101538.03;20933959;28;20390;-69
2022/01/20 15:43:06;;;;;;;5.50;1.88;;;;;;;3.13;72.10;101556.88;20941228;28;20049;-69
2022/01/20 15:53:07;;;;;;;7.45;1.40;;;;;;;3.04;70.86;101580.72;20950056;28;20058;-68
2022/01/20 16:03:09;;;;;;;6.85;1.30;;;;;;;2.98;71.93;101597.75;20949209;28;20041;-68
2022/01/20 16:13:11;;;;;;;8.15;1.38;;;;;;;3.13;71.90;101623.28;20950233;28;20094;-69
2022/01/20 16:23:13;;;;;;;7.80;1.60;;;;;;;2.95;75.63;101603.69;20948876;28;20059;-68
2022/01/20 16:33:14;;;;;;;5.63;1.35;;;;;;;2.91;73.78;101619.03;20948722;28;20040;-69
2022/01/20 16:43:16;;;;;;;11.05;1.55;;;;;;;2.76;77.02;101633.19;20947180;28;20057;-68
2022/01/20 16:53:17;;;;;;;10.85;2.10;;;;;;;2.68;74.02;101649.25;20947354;28;20104;-68
2022/01/20 17:03:19;;;;;;;10.38;2.17;;;;;;;2.74;71.98;101660.72;20946844;28;20044;-68
2022/01/20 17:13:21;;;;;;;8.77;1.63;;;;;;;2.67;73.43;101679.41;20947125;28;20055;-71
2022/01/20 17:23:24;;;;;;;10.20;1.90;;;;;;;2.61;75.45;101678.31;20953413;28;20056;-70
2022/01/20 17:33:25;;;;;;;9.50;1.83;;;;;;;2.60;71.87;101687.78;20929681;28;20119;-70
2022/01/20 17:43:27;;;;;;;5.05;1.20;;;;;;;2.58;72.06;101694.56;20943411;28;20063;-70
2022/01/20 17:53:47;;;;;;;6.40;1.65;;;;;;;2.56;73.41;101701.41;20942373;28;20048;-70
2022/01/20 18:03:48;;;;;;;6.57;2.00;;;;;;;2.53;73.28;101711.63;20939547;28;20110;-70
2022/01/20 18:13:50;;;;;;;7.05;2.20;;;;;;;2.50;77.62;101725.34;20941206;28;20098;-71
2022/01/20 18:23:52;;;;;;;7.40;2.50;;;;;;;2.42;76.41;101718.09;20939177;28;20049;-71
2022/01/20 18:33:53;;;;;;;12.07;4.43;;;;;;;2.33;79.78;101723.78;20934900;28;20107;-71
2022/01/20 18:43:56;;;;;;;7.78;2.97;;;;;;;2.14;83.70;101714.44;20931683;28;20382;-70
2022/01/20 18:53:58;;;;;;;7.40;1.80;;;;;;;1.94;81.65;101723.97;20929968;28;20056;-71
2022/01/20 19:03:59;;;;;;;6.18;1.77;;;;;;;1.91;82.47;101733.28;20933010;28;20111;-70
2022/01/20 19:14:02;;;;;;;8.68;2.05;;;;;;;1.94;80.10;101730.84;20936118;28;20057;-72
2022/01/20 19:24:04;;;;;;;9.70;2.35;;;;;;;1.75;80.37;101735.25;20928091;28;20048;-72
2022/01/20 19:34:05;;;;;;;8.55;2.50;;;;;;;1.39;86.07;101749.16;20935782;28;20041;-71
2022/01/20 19:44:07;;;;;;;8.48;3.05;;;;;;;1.10;87.16;101748.78;20935495;28;20114;-72
2022/01/20 19:54:10;;;;;;;9.20;2.78;;;;;;;0.88;88.45;101757.28;20944739;28;20393;-72
2022/01/20 20:04:11;;;;;;;6.22;2.40;;;;;;;0.91;87.46;101783.22;20942252;28;20110;-72
2022/01/20 20:14:13;;;;;;;9.02;2.53;;;;;;;0.95;88.63;101781.63;20933444;28;20461;-72
2022/01/20 20:24:15;;;;;;;7.22;2.17;;;;;;;0.91;89.03;101778.06;20929383;28;20102;-71
2022/01/20 20:34:17;;;;;;;11.55;2.58;;;;;;;0.93;89.57;101765.22;20945113;28;20053;-72
2022/01/20 20:44:21;;;;;;;10.48;2.38;;;;;;;0.91;89.90;101788.38;20945150;28;20889;-72
2022/01/20 20:54:25;;;;;;;10.70;3.30;;;;;;;1.14;87.64;101797.13;20944460;28;20044;-71
2022/01/20 21:04:26;;;;;;;12.77;2.85;;;;;;;1.27;87.61;101804.59;20940819;28;20053;-71
2022/01/20 21:14:36;;;;;;;12.65;2.33;;;;;;;1.39;87.23;101805.94;20944163;28;20529;-76
2022/01/20 21:24:38;;;;;;;11.98;2.58;;;;;;;1.37;87.39;101825.66;20941768;28;20103;-69
2022/01/20 21:34:40;;;;;;;8.48;2.53;;;;;;;1.26;88.51;101831.22;20945192;28;20468;-69
2022/01/20 21:44:42;;;;;;;12.48;3.00;;;;;;;1.10;90.37;101841.63;20934493;28;20739;-70
2022/01/20 21:54:43;;;;;;;14.95;2.65;;;;;;;0.95;92.35;101856.41;20937961;28;20048;-69
2022/01/20 22:04:45;;;;;;;13.57;2.97;;;;;;;0.81;94.63;101857.47;20940007;28;20154;-72
2022/01/20 22:14:47;;;;;;;15.13;3.20;;;;;;;0.73;95.43;101859.69;20934050;28;20413;-71
2022/01/20 22:24:48;;;;;;;14.73;3.50;;;;;;;0.66;95.33;101867.94;20942186;28;20040;-72
2022/01/20 22:34:51;;;;;;;15.57;3.40;;;;;;;0.55;95.92;101864.84;20955008;28;20055;-74
2022/01/20 22:44:52;;;;;;;15.80;3.47;;;;;;;0.38;96.71;101876.91;20934100;28;20122;-72
2022/01/20 22:54:54;;;;;;;12.82;2.63;;;;;;;0.41;95.39;101886.47;20933168;28;20455;-74
2022/01/20 23:04:55;;;;;;;13.10;2.85;;;;;;;0.36;95.18;101896.56;20934624;28;20044;-74
2022/01/20 23:15:04;;;;;;;11.00;3.30;;;;;;;0.45;94.77;101898.72;20939966;28;20056;-72
2022/01/20 23:25:07;;;;;;;12.77;3.30;;;;;;;0.54;94.41;101883.69;20935217;28;20045;-71
2022/01/20 23:35:08;;;;;;;10.23;2.60;;;;;;;0.79;92.28;101900.34;20937322;28;20323;-75
2022/01/20 23:55:14;;;;;;;;;;;;;;;0.94;91.55;101912.25;20939838;28;20048;-72
